createdAt,value
2018-05-18T00:00:35.523Z,1022.51
2018-05-18T00:01:35.409Z,1022.52
2018-05-18T00:02:35.227Z,1022.51
2018-05-18T00:03:35.341Z,1022.51
2018-05-18T00:04:35.214Z,1022.52
2018-05-18T00:05:35.371Z,1022.5
2018-05-18T00:06:35.250Z,1022.52
2018-05-18T00:07:35.268Z,1022.53
2018-05-18T00:08:35.408Z,1022.52
2018-05-18T00:09:35.503Z,1022.53
2018-05-18T00:10:35.318Z,1022.52
2018-05-18T00:11:35.181Z,1022.5
2018-05-18T00:12:35.282Z,1022.5
2018-05-18T00:13:35.409Z,1022.5
2018-05-18T00:14:35.229Z,1022.45
2018-05-18T00:15:35.634Z,1022.49
2018-05-18T00:16:35.261Z,1022.44
2018-05-18T00:17:35.186Z,1022.47
2018-05-18T00:18:35.298Z,1022.44
2018-05-18T00:19:35.367Z,1022.46
2018-05-18T00:20:35.395Z,1022.48
2018-05-18T00:21:35.420Z,1022.48
2018-05-18T00:22:35.357Z,1022.51
2018-05-18T00:23:35.283Z,1022.47
2018-05-18T00:24:35.411Z,1022.51
2018-05-18T00:25:35.239Z,1022.51
2018-05-18T00:26:35.410Z,1022.42
2018-05-18T00:27:35.348Z,1022.46
2018-05-18T00:28:35.289Z,1022.43
2018-05-18T00:29:35.301Z,1022.39
2018-05-18T00:30:35.259Z,1022.42
2018-05-18T00:31:35.250Z,1022.37
2018-05-18T00:32:35.138Z,1022.41
2018-05-18T00:33:35.209Z,1022.4
2018-05-18T00:34:35.406Z,1022.38
2018-05-18T00:35:35.187Z,1022.38
2018-05-18T00:36:35.367Z,1022.36
2018-05-18T00:37:35.415Z,1022.37
2018-05-18T00:38:35.342Z,1022.43
2018-05-18T00:39:35.216Z,1022.37
2018-05-18T00:40:35.366Z,1022.4
2018-05-18T00:41:35.377Z,1022.4
2018-05-18T00:42:35.206Z,1022.41
2018-05-18T00:43:35.298Z,1022.38
2018-05-18T00:44:35.360Z,1022.38
2018-05-18T00:45:35.344Z,1022.38
2018-05-18T00:46:35.337Z,1022.38
2018-05-18T00:47:35.272Z,1022.42
2018-05-18T00:48:35.489Z,1022.41
2018-05-18T00:49:35.427Z,1022.41
2018-05-18T00:50:35.292Z,1022.38
2018-05-18T00:51:35.310Z,1022.41
2018-05-18T00:52:35.140Z,1022.4
2018-05-18T00:53:35.288Z,1022.39
2018-05-18T00:54:35.554Z,1022.38
2018-05-18T00:55:35.174Z,1022.39
2018-05-18T00:56:35.291Z,1022.43
2018-05-18T00:57:35.312Z,1022.39
2018-05-18T00:58:35.421Z,1022.44
2018-05-18T00:59:35.260Z,1022.45
2018-05-18T01:00:35.223Z,1022.41
2018-05-18T01:01:35.166Z,1022.42
2018-05-18T01:02:35.425Z,1022.37
2018-05-18T01:03:35.388Z,1022.37
2018-05-18T01:04:35.334Z,1022.37
2018-05-18T01:05:35.265Z,1022.37
2018-05-18T01:06:35.994Z,1022.4
2018-05-18T01:07:35.840Z,1022.39
2018-05-18T01:08:35.998Z,1022.39
2018-05-18T01:09:36.289Z,1022.4
2018-05-18T01:10:36.024Z,1022.34
2018-05-18T01:11:36.103Z,1022.36
2018-05-18T01:12:36.132Z,1022.38
2018-05-18T01:13:36.095Z,1022.37
2018-05-18T01:14:35.967Z,1022.37
2018-05-18T01:15:36.114Z,1022.38
2018-05-18T01:16:35.844Z,1022.39
2018-05-18T01:17:37.374Z,1022.42
2018-05-18T01:18:36.184Z,1022.38
2018-05-18T01:19:35.225Z,1022.4
2018-05-18T01:20:35.734Z,1022.42
2018-05-18T01:21:35.209Z,1022.46
2018-05-18T01:22:35.888Z,1022.45
2018-05-18T01:23:35.906Z,1022.4
2018-05-18T01:24:36.012Z,1022.43
2018-05-18T01:25:36.081Z,1022.42
2018-05-18T01:26:37.326Z,1022.44
2018-05-18T01:27:35.984Z,1022.44
2018-05-18T01:28:35.153Z,1022.46
2018-05-18T01:29:35.856Z,1022.48
2018-05-18T01:30:35.255Z,1022.48
2018-05-18T01:31:35.654Z,1022.48
2018-05-18T01:32:36.070Z,1022.51
2018-05-18T01:33:36.057Z,1022.55
2018-05-18T01:34:35.813Z,1022.52
2018-05-18T01:35:36.821Z,1022.53
2018-05-18T01:36:36.020Z,1022.5
2018-05-18T01:37:35.279Z,1022.51
2018-05-18T01:38:35.805Z,1022.51
2018-05-18T01:39:35.813Z,1022.49
2018-05-18T01:40:35.965Z,1022.51
2018-05-18T01:41:35.786Z,1022.49
2018-05-18T01:42:35.765Z,1022.48
2018-05-18T01:43:36.041Z,1022.46
2018-05-18T01:44:35.982Z,1022.49
2018-05-18T01:45:36.536Z,1022.43
2018-05-18T01:46:36.215Z,1022.47
2018-05-18T01:47:35.253Z,1022.41
2018-05-18T01:48:36.123Z,1022.4
2018-05-18T01:49:36.157Z,1022.41
2018-05-18T01:50:35.155Z,1022.45
2018-05-18T01:51:36.067Z,1022.42
2018-05-18T01:52:36.254Z,1022.39
2018-05-18T01:53:35.990Z,1022.42
2018-05-18T01:54:35.338Z,1022.4
2018-05-18T01:55:35.119Z,1022.42
2018-05-18T01:56:35.777Z,1022.42
2018-05-18T01:57:35.915Z,1022.41
2018-05-18T01:58:35.229Z,1022.42
2018-05-18T01:59:35.949Z,1022.4
2018-05-18T02:00:36.173Z,1022.43
2018-05-18T02:01:35.941Z,1022.4
2018-05-18T02:02:36.060Z,1022.43
2018-05-18T02:03:36.018Z,1022.45
2018-05-18T02:04:35.185Z,1022.48
2018-05-18T02:05:35.589Z,1022.45
2018-05-18T02:06:35.284Z,1022.49
2018-05-18T02:07:35.364Z,1022.5
2018-05-18T02:08:35.255Z,1022.5
2018-05-18T02:09:35.225Z,1022.52
2018-05-18T02:10:37.886Z,1022.56
2018-05-18T02:11:35.366Z,1022.54
2018-05-18T02:12:35.528Z,1022.56
2018-05-18T02:13:35.370Z,1022.53
2018-05-18T02:14:35.217Z,1022.53
2018-05-18T02:15:35.336Z,1022.55
2018-05-18T02:16:35.221Z,1022.56
2018-05-18T02:17:35.345Z,1022.53
2018-05-18T02:18:35.233Z,1022.53
2018-05-18T02:19:35.314Z,1022.59
2018-05-18T02:20:35.394Z,1022.56
2018-05-18T02:21:35.269Z,1022.56
2018-05-18T02:22:35.326Z,1022.53
2018-05-18T02:23:35.329Z,1022.53
2018-05-18T02:24:35.221Z,1022.54
2018-05-18T02:25:37.669Z,1022.54
2018-05-18T02:26:35.243Z,1022.54
2018-05-18T02:27:35.359Z,1022.54
2018-05-18T02:28:37.520Z,1022.54
2018-05-18T02:29:35.273Z,1022.55
2018-05-18T02:30:35.381Z,1022.55
2018-05-18T02:31:35.363Z,1022.54
2018-05-18T02:32:35.386Z,1022.57
2018-05-18T02:33:35.403Z,1022.57
2018-05-18T02:34:37.496Z,1022.53
2018-05-18T02:35:35.249Z,1022.57
2018-05-18T02:36:35.441Z,1022.58
2018-05-18T02:37:35.321Z,1022.58
2018-05-18T02:38:35.259Z,1022.61
2018-05-18T02:39:35.233Z,1022.58
2018-05-18T02:40:37.661Z,1022.58
2018-05-18T02:41:35.260Z,1022.57
2018-05-18T02:42:42.478Z,1022.57
2018-05-18T02:43:35.367Z,1022.62
2018-05-18T02:44:35.409Z,1022.59
2018-05-18T02:45:35.388Z,1022.56
2018-05-18T02:46:35.297Z,1022.6
2018-05-18T02:47:35.344Z,1022.58
2018-05-18T02:48:37.659Z,1022.58
2018-05-18T02:49:35.322Z,1022.56
2018-05-18T02:50:35.291Z,1022.55
2018-05-18T02:51:37.281Z,1022.52
2018-05-18T02:52:35.413Z,1022.57
2018-05-18T02:53:35.336Z,1022.55
2018-05-18T02:54:35.372Z,1022.55
2018-05-18T02:55:35.290Z,1022.52
2018-05-18T02:56:35.242Z,1022.53
2018-05-18T02:57:35.466Z,1022.56
2018-05-18T02:58:35.370Z,1022.51
2018-05-18T02:59:35.246Z,1022.57
2018-05-18T03:00:35.403Z,1022.51
2018-05-18T03:01:35.374Z,1022.51
2018-05-18T03:02:35.266Z,1022.51
2018-05-18T03:03:35.414Z,1022.52
2018-05-18T03:04:35.369Z,1022.56
2018-05-18T03:05:35.666Z,1022.55
2018-05-18T03:06:35.664Z,1022.52
2018-05-18T03:07:36.273Z,1022.53
2018-05-18T03:08:35.131Z,1022.53
2018-05-18T03:09:35.108Z,1022.51
2018-05-18T03:10:35.900Z,1022.55
2018-05-18T03:11:35.555Z,1022.55
2018-05-18T03:12:35.575Z,1022.55
2018-05-18T03:13:35.551Z,1022.55
2018-05-18T03:14:35.600Z,1022.58
2018-05-18T03:15:35.635Z,1022.58
2018-05-18T03:16:35.561Z,1022.54
2018-05-18T03:17:35.869Z,1022.56
2018-05-18T03:18:35.361Z,1022.56
2018-05-18T03:19:35.268Z,1022.58
2018-05-18T03:20:35.120Z,1022.59
2018-05-18T03:21:35.181Z,1022.58
2018-05-18T03:22:35.338Z,1022.57
2018-05-18T03:23:35.180Z,1022.58
2018-05-18T03:24:35.154Z,1022.57
2018-05-18T03:25:35.383Z,1022.57
2018-05-18T03:26:35.154Z,1022.55
2018-05-18T03:27:35.097Z,1022.58
2018-05-18T03:28:35.183Z,1022.56
2018-05-18T03:29:35.295Z,1022.59
2018-05-18T03:30:35.322Z,1022.58
2018-05-18T03:31:35.225Z,1022.59
2018-05-18T03:32:35.306Z,1022.58
2018-05-18T03:33:35.322Z,1022.6
2018-05-18T03:34:35.177Z,1022.64
2018-05-18T03:35:35.280Z,1022.63
2018-05-18T03:36:35.194Z,1022.65
2018-05-18T03:37:35.404Z,1022.62
2018-05-18T03:38:35.391Z,1022.6
2018-05-18T03:39:35.217Z,1022.61
2018-05-18T03:40:35.091Z,1022.62
2018-05-18T03:41:35.256Z,1022.6
2018-05-18T03:42:35.343Z,1022.64
2018-05-18T03:43:35.362Z,1022.66
2018-05-18T03:44:35.315Z,1022.7
2018-05-18T03:45:35.277Z,1022.72
2018-05-18T03:46:35.227Z,1022.72
2018-05-18T03:47:35.141Z,1022.78
2018-05-18T03:48:35.290Z,1022.77
2018-05-18T03:49:35.128Z,1022.76
2018-05-18T03:50:35.374Z,1022.81
2018-05-18T03:51:35.311Z,1022.76
2018-05-18T03:52:35.289Z,1022.8
2018-05-18T03:53:35.352Z,1022.75
2018-05-18T03:54:35.296Z,1022.78
2018-05-18T03:55:35.244Z,1022.78
2018-05-18T03:56:35.432Z,1022.82
2018-05-18T03:57:35.289Z,1022.81
2018-05-18T03:58:35.124Z,1022.81
2018-05-18T03:59:35.285Z,1022.8
2018-05-18T04:00:35.292Z,1022.84
2018-05-18T04:01:35.103Z,1022.85
2018-05-18T04:02:35.357Z,1022.85
2018-05-18T04:03:35.364Z,1022.89
2018-05-18T04:04:35.264Z,1022.84
2018-05-18T04:05:35.227Z,1022.87
2018-05-18T04:06:35.186Z,1022.86
2018-05-18T04:07:35.123Z,1022.85
2018-05-18T04:08:35.332Z,1022.93
2018-05-18T04:09:35.403Z,1022.93
2018-05-18T04:10:35.333Z,1022.93
2018-05-18T04:11:35.278Z,1022.94
2018-05-18T04:12:35.246Z,1022.95
2018-05-18T04:13:35.193Z,1022.94
2018-05-18T04:14:35.336Z,1022.91
2018-05-18T04:15:35.338Z,1022.95
2018-05-18T04:16:35.099Z,1022.97
2018-05-18T04:17:35.109Z,1022.99
2018-05-18T04:18:35.303Z,1022.98
2018-05-18T04:19:35.163Z,1022.94
2018-05-18T04:20:35.332Z,1023.01
2018-05-18T04:21:35.297Z,1022.99
2018-05-18T04:22:35.183Z,1023
2018-05-18T04:23:35.367Z,1023.01
2018-05-18T04:24:35.515Z,1023.04
2018-05-18T04:25:35.145Z,1023.01
2018-05-18T04:26:35.147Z,1023.03
2018-05-18T04:27:35.221Z,1023.02
2018-05-18T04:28:35.102Z,1023
2018-05-18T04:29:35.208Z,1022.99
2018-05-18T04:30:35.416Z,1022.99
2018-05-18T04:31:35.308Z,1022.98
2018-05-18T04:32:35.189Z,1022.97
2018-05-18T04:33:35.270Z,1022.98
2018-05-18T04:34:35.124Z,1022.96
2018-05-18T04:35:35.378Z,1022.96
2018-05-18T04:36:35.341Z,1022.98
2018-05-18T04:37:35.379Z,1022.97
2018-05-18T04:38:35.422Z,1023
2018-05-18T04:39:35.360Z,1022.98
2018-05-18T04:40:35.270Z,1022.96
2018-05-18T04:41:35.356Z,1022.98
2018-05-18T04:42:35.347Z,1023.03
2018-05-18T04:43:35.165Z,1022.98
2018-05-18T04:44:35.308Z,1023.02
2018-05-18T04:45:35.186Z,1023.02
2018-05-18T04:46:35.276Z,1023
2018-05-18T04:47:35.439Z,1023.01
2018-05-18T04:48:35.286Z,1023.02
2018-05-18T04:49:35.180Z,1023.02
2018-05-18T04:50:35.332Z,1023.01
2018-05-18T04:51:35.152Z,1023.01
2018-05-18T04:52:35.135Z,1023.01
2018-05-18T04:53:35.224Z,1023.05
2018-05-18T04:54:35.165Z,1023.01
2018-05-18T04:55:35.246Z,1023.08
2018-05-18T04:56:35.331Z,1023.04
2018-05-18T04:57:35.264Z,1023.08
2018-05-18T04:58:35.254Z,1023.05
2018-05-18T04:59:35.310Z,1023.08
2018-05-18T05:00:35.278Z,1023.13
2018-05-18T05:01:35.069Z,1023.09
2018-05-18T05:02:35.231Z,1023.09
2018-05-18T05:03:35.319Z,1023.11
2018-05-18T05:04:35.254Z,1023.08
2018-05-18T05:05:35.452Z,1023.13
2018-05-18T05:06:35.270Z,1023.09
2018-05-18T05:07:35.312Z,1023.07
2018-05-18T05:08:35.407Z,1023.07
2018-05-18T05:09:35.261Z,1023.08
2018-05-18T05:10:45.343Z,1023.12
2018-05-18T05:11:35.421Z,1023.12
2018-05-18T05:12:35.487Z,1023.1
2018-05-18T05:13:35.170Z,1023.09
2018-05-18T05:14:35.301Z,1023.11
2018-05-18T05:15:35.232Z,1023.14
2018-05-18T05:16:35.130Z,1023.11
2018-05-18T05:17:35.298Z,1023.1
2018-05-18T05:18:35.372Z,1023.12
2018-05-18T05:19:35.400Z,1023.1
2018-05-18T05:20:35.226Z,1023.15
2018-05-18T05:21:35.441Z,1023.13
2018-05-18T05:22:35.121Z,1023.16
2018-05-18T05:23:35.442Z,1023.17
2018-05-18T05:24:35.244Z,1023.15
2018-05-18T05:25:35.194Z,1023.19
2018-05-18T05:26:35.033Z,1023.2
2018-05-18T05:27:35.244Z,1023.21
2018-05-18T05:28:35.118Z,1023.22
2018-05-18T05:29:35.372Z,1023.23
2018-05-18T05:30:35.560Z,1023.19
2018-05-18T05:31:35.244Z,1023.21
2018-05-18T05:32:35.400Z,1023.19
2018-05-18T05:33:35.299Z,1023.2
2018-05-18T05:34:35.363Z,1023.18
2018-05-18T05:35:35.107Z,1023.18
2018-05-18T05:36:35.251Z,1023.18
2018-05-18T05:37:35.231Z,1023.22
2018-05-18T05:38:35.271Z,1023.19
2018-05-18T05:39:35.168Z,1023.21
2018-05-18T05:40:35.159Z,1023.25
2018-05-18T05:41:35.301Z,1023.16
2018-05-18T05:42:35.210Z,1023.21
2018-05-18T05:43:35.358Z,1023.24
2018-05-18T05:44:35.122Z,1023.27
2018-05-18T05:45:35.089Z,1023.22
2018-05-18T05:46:35.290Z,1023.24
2018-05-18T05:47:35.376Z,1023.26
2018-05-18T05:48:35.264Z,1023.28
2018-05-18T05:49:35.294Z,1023.24
2018-05-18T05:50:35.244Z,1023.29
2018-05-18T05:51:35.242Z,1023.26
2018-05-18T05:52:35.261Z,1023.28
2018-05-18T05:53:35.052Z,1023.27
2018-05-18T05:54:35.332Z,1023.26
2018-05-18T05:55:35.283Z,1023.27
2018-05-18T05:56:35.190Z,1023.3
2018-05-18T05:57:35.156Z,1023.3
2018-05-18T05:58:35.662Z,1023.36
2018-05-18T05:59:35.300Z,1023.29
2018-05-18T06:00:35.277Z,1023.33
2018-05-18T06:01:35.298Z,1023.36
2018-05-18T06:02:35.126Z,1023.34
2018-05-18T06:03:35.216Z,1023.36
2018-05-18T06:04:35.307Z,1023.39
2018-05-18T06:05:35.259Z,1023.38
2018-05-18T06:06:35.520Z,1023.35
2018-05-18T06:07:35.196Z,1023.36
2018-05-18T06:08:35.073Z,1023.34
2018-05-18T06:09:35.373Z,1023.37
2018-05-18T06:10:35.510Z,1023.38
2018-05-18T06:11:35.252Z,1023.33
2018-05-18T06:12:35.328Z,1023.35
2018-05-18T06:13:35.168Z,1023.34
2018-05-18T06:14:35.310Z,1023.4
2018-05-18T06:15:35.130Z,1023.33
2018-05-18T06:16:35.165Z,1023.4
2018-05-18T06:17:35.511Z,1023.4
2018-05-18T06:18:35.587Z,1023.39
2018-05-18T06:19:35.574Z,1023.37
2018-05-18T06:20:35.249Z,1023.39
2018-05-18T06:21:35.230Z,1023.38
2018-05-18T06:22:35.164Z,1023.42
2018-05-18T06:23:35.093Z,1023.38
2018-05-18T06:24:35.184Z,1023.4
2018-05-18T06:25:35.345Z,1023.39
2018-05-18T06:26:35.258Z,1023.41
2018-05-18T06:27:45.153Z,1023.4
2018-05-18T06:28:35.112Z,1023.39
2018-05-18T06:29:35.208Z,1023.37
2018-05-18T06:30:35.303Z,1023.43
2018-05-18T06:31:35.348Z,1023.44
2018-05-18T06:32:35.159Z,1023.39
2018-05-18T06:33:35.184Z,1023.46
2018-05-18T06:34:35.358Z,1023.45
2018-05-18T06:35:35.201Z,1023.43
2018-05-18T06:36:35.234Z,1023.48
2018-05-18T06:37:35.123Z,1023.49
2018-05-18T06:38:35.279Z,1023.49
2018-05-18T06:39:35.136Z,1023.45
2018-05-18T06:40:35.095Z,1023.49
2018-05-18T06:41:35.209Z,1023.48
2018-05-18T06:42:35.338Z,1023.51
2018-05-18T06:43:35.142Z,1023.51
2018-05-18T06:44:35.165Z,1023.51
2018-05-18T06:45:35.231Z,1023.54
2018-05-18T06:46:35.066Z,1023.51
2018-05-18T06:47:35.314Z,1023.51
2018-05-18T06:48:35.328Z,1023.54
2018-05-18T06:49:35.342Z,1023.52
2018-05-18T06:50:35.137Z,1023.51
2018-05-18T06:51:35.280Z,1023.51
2018-05-18T06:52:35.315Z,1023.54
2018-05-18T06:53:35.156Z,1023.53
2018-05-18T06:54:35.257Z,1023.52
2018-05-18T06:55:35.304Z,1023.54
2018-05-18T06:56:35.135Z,1023.52
2018-05-18T06:57:35.372Z,1023.53
2018-05-18T06:58:35.290Z,1023.57
2018-05-18T06:59:35.222Z,1023.51
2018-05-18T07:00:35.172Z,1023.53
2018-05-18T07:01:35.070Z,1023.56
2018-05-18T07:02:35.135Z,1023.54
2018-05-18T07:03:35.163Z,1023.56
2018-05-18T07:04:35.433Z,1023.55
2018-05-18T07:05:35.099Z,1023.57
2018-05-18T07:06:35.308Z,1023.57
2018-05-18T07:07:35.201Z,1023.52
2018-05-18T07:08:35.292Z,1023.59
2018-05-18T07:09:35.285Z,1023.52
2018-05-18T07:10:35.364Z,1023.54
2018-05-18T07:11:35.270Z,1023.53
2018-05-18T07:12:35.245Z,1023.49
2018-05-18T07:13:35.329Z,1023.5
2018-05-18T07:14:35.271Z,1023.51
2018-05-18T07:15:35.300Z,1023.52
2018-05-18T07:16:35.616Z,1023.54
2018-05-18T07:17:35.313Z,1023.52
2018-05-18T07:18:35.083Z,1023.52
2018-05-18T07:19:35.440Z,1023.52
2018-05-18T07:20:35.095Z,1023.56
2018-05-18T07:21:35.163Z,1023.54
2018-05-18T07:22:35.307Z,1023.58
2018-05-18T07:23:35.242Z,1023.59
2018-05-18T07:24:35.257Z,1023.57
2018-05-18T07:25:35.182Z,1023.52
2018-05-18T07:26:35.489Z,1023.59
2018-05-18T07:27:35.190Z,1023.55
2018-05-18T07:28:35.049Z,1023.54
2018-05-18T07:29:35.270Z,1023.58
2018-05-18T07:30:35.034Z,1023.56
2018-05-18T07:31:35.197Z,1023.57
2018-05-18T07:32:35.389Z,1023.54
2018-05-18T07:33:35.346Z,1023.58
2018-05-18T07:34:35.040Z,1023.56
2018-05-18T07:35:35.281Z,1023.55
2018-05-18T07:36:35.367Z,1023.56
2018-05-18T07:37:35.142Z,1023.54
2018-05-18T07:38:35.363Z,1023.57
2018-05-18T07:39:35.106Z,1023.55
2018-05-18T07:40:35.366Z,1023.58
2018-05-18T07:41:35.301Z,1023.54
2018-05-18T07:42:35.437Z,1023.58
2018-05-18T07:43:35.277Z,1023.59
2018-05-18T07:44:35.186Z,1023.54
2018-05-18T07:45:35.214Z,1023.54
2018-05-18T07:46:35.350Z,1023.57
2018-05-18T07:47:35.315Z,1023.58
2018-05-18T07:48:35.014Z,1023.6
2018-05-18T07:49:35.249Z,1023.61
2018-05-18T07:50:35.301Z,1023.59
2018-05-18T07:51:35.206Z,1023.59
2018-05-18T07:52:35.124Z,1023.59
2018-05-18T07:53:35.508Z,1023.62
2018-05-18T07:54:35.243Z,1023.56
2018-05-18T07:55:35.457Z,1023.6
2018-05-18T07:56:35.144Z,1023.62
2018-05-18T07:57:35.188Z,1023.58
2018-05-18T07:58:35.034Z,1023.6
2018-05-18T07:59:35.446Z,1023.62
2018-05-18T08:00:35.230Z,1023.58
2018-05-18T08:01:35.161Z,1023.59
2018-05-18T08:02:35.189Z,1023.57
2018-05-18T08:03:35.304Z,1023.55
2018-05-18T08:04:35.280Z,1023.58
2018-05-18T08:05:35.047Z,1023.57
2018-05-18T08:06:34.998Z,1023.63
2018-05-18T08:07:35.074Z,1023.58
2018-05-18T08:08:35.271Z,1023.56
2018-05-18T08:09:35.918Z,1023.53
2018-05-18T08:10:36.057Z,1023.57
2018-05-18T08:11:35.813Z,1023.56
2018-05-18T08:12:35.793Z,1023.55
2018-05-18T08:13:36.047Z,1023.52
2018-05-18T08:14:35.945Z,1023.54
2018-05-18T08:15:35.735Z,1023.59
2018-05-18T08:16:35.884Z,1023.55
2018-05-18T08:17:35.941Z,1023.58
2018-05-18T08:18:35.749Z,1023.57
2018-05-18T08:19:35.824Z,1023.59
2018-05-18T08:20:35.772Z,1023.53
2018-05-18T08:21:35.872Z,1023.52
2018-05-18T08:22:35.784Z,1023.52
2018-05-18T08:23:35.705Z,1023.54
2018-05-18T08:24:35.722Z,1023.54
2018-05-18T08:25:35.841Z,1023.53
2018-05-18T08:26:35.949Z,1023.53
2018-05-18T08:27:35.903Z,1023.53
2018-05-18T08:28:35.733Z,1023.5
2018-05-18T08:29:35.997Z,1023.5
2018-05-18T08:30:35.874Z,1023.5
2018-05-18T08:31:36.027Z,1023.47
2018-05-18T08:32:35.829Z,1023.48
2018-05-18T08:33:35.743Z,1023.49
2018-05-18T08:34:35.870Z,1023.48
2018-05-18T08:35:35.850Z,1023.52
2018-05-18T08:36:35.849Z,1023.51
2018-05-18T08:37:35.834Z,1023.53
2018-05-18T08:38:35.786Z,1023.48
2018-05-18T08:39:35.044Z,1023.47
2018-05-18T08:40:35.219Z,1023.51
2018-05-18T08:41:35.166Z,1023.5
2018-05-18T08:42:35.116Z,1023.49
2018-05-18T08:43:35.160Z,1023.49
2018-05-18T08:44:35.227Z,1023.51
2018-05-18T08:45:35.232Z,1023.53
2018-05-18T08:46:35.062Z,1023.53
2018-05-18T08:47:35.597Z,1023.57
2018-05-18T08:48:35.129Z,1023.51
2018-05-18T08:49:35.463Z,1023.55
2018-05-18T08:50:35.237Z,1023.58
2018-05-18T08:51:45.202Z,1023.62
2018-05-18T08:52:35.209Z,1023.58
2018-05-18T08:53:35.114Z,1023.55
2018-05-18T08:54:35.291Z,1023.59
2018-05-18T08:55:35.230Z,1023.61
2018-05-18T08:56:35.182Z,1023.63
2018-05-18T08:57:35.188Z,1023.64
2018-05-18T08:58:35.088Z,1023.61
2018-05-18T08:59:35.364Z,1023.58
2018-05-18T09:00:35.473Z,1023.54
2018-05-18T09:01:35.136Z,1023.53
2018-05-18T09:02:35.087Z,1023.58
2018-05-18T09:03:35.155Z,1023.53
2018-05-18T09:04:35.301Z,1023.56
2018-05-18T09:05:35.292Z,1023.54
2018-05-18T09:06:35.329Z,1023.56
2018-05-18T09:07:35.041Z,1023.51
2018-05-18T09:08:35.159Z,1023.52
2018-05-18T09:09:35.164Z,1023.59
2018-05-18T09:10:35.176Z,1023.56
2018-05-18T09:11:35.263Z,1023.58
2018-05-18T09:12:35.105Z,1023.5
2018-05-18T09:13:35.271Z,1023.52
2018-05-18T09:14:35.222Z,1023.57
2018-05-18T09:15:35.133Z,1023.55
2018-05-18T09:16:35.069Z,1023.54
2018-05-18T09:17:35.187Z,1023.53
2018-05-18T09:18:35.104Z,1023.52
2018-05-18T09:19:35.048Z,1023.52
2018-05-18T09:20:35.141Z,1023.55
2018-05-18T09:21:35.298Z,1023.51
2018-05-18T09:22:35.089Z,1023.53
2018-05-18T09:23:35.123Z,1023.54
2018-05-18T09:24:35.245Z,1023.53
2018-05-18T09:25:35.054Z,1023.52
2018-05-18T09:26:35.141Z,1023.52
2018-05-18T09:27:35.283Z,1023.54
2018-05-18T09:28:35.160Z,1023.55
2018-05-18T09:29:35.301Z,1023.54
2018-05-18T09:30:35.240Z,1023.52
2018-05-18T09:31:35.224Z,1023.52
2018-05-18T09:32:35.169Z,1023.51
2018-05-18T09:33:35.290Z,1023.51
2018-05-18T09:34:34.969Z,1023.49
2018-05-18T09:35:35.156Z,1023.48
2018-05-18T09:36:35.042Z,1023.49
2018-05-18T09:37:35.224Z,1023.46
2018-05-18T09:38:34.987Z,1023.49
2018-05-18T09:39:35.198Z,1023.47
2018-05-18T09:40:35.071Z,1023.51
2018-05-18T09:41:35.057Z,1023.51
2018-05-18T09:42:35.202Z,1023.53
2018-05-18T09:43:35.132Z,1023.5
2018-05-18T09:44:35.203Z,1023.51
2018-05-18T09:45:35.122Z,1023.46
2018-05-18T09:46:35.092Z,1023.43
2018-05-18T09:47:35.079Z,1023.51
2018-05-18T09:48:35.298Z,1023.48
2018-05-18T09:49:35.268Z,1023.46
2018-05-18T09:50:35.250Z,1023.49
2018-05-18T09:51:35.275Z,1023.5
2018-05-18T09:52:35.030Z,1023.51
2018-05-18T09:53:35.034Z,1023.47
2018-05-18T09:54:35.600Z,1023.44
2018-05-18T09:55:35.830Z,1023.5
2018-05-18T09:56:35.128Z,1023.48
2018-05-18T09:57:35.235Z,1023.48
2018-05-18T09:58:35.189Z,1023.5
2018-05-18T09:59:35.175Z,1023.48
2018-05-18T10:00:35.439Z,1023.52
2018-05-18T10:01:34.954Z,1023.53
2018-05-18T10:02:35.258Z,1023.53
2018-05-18T10:03:35.037Z,1023.56
2018-05-18T10:04:35.185Z,1023.56
2018-05-18T10:05:35.068Z,1023.54
2018-05-18T10:06:35.053Z,1023.52
2018-05-18T10:07:35.072Z,1023.54
2018-05-18T10:08:35.189Z,1023.56
2018-05-18T10:09:35.205Z,1023.55
2018-05-18T10:10:35.096Z,1023.52
2018-05-18T10:11:35.059Z,1023.52
2018-05-18T10:12:35.022Z,1023.51
2018-05-18T10:13:35.233Z,1023.48
2018-05-18T10:14:35.195Z,1023.51
2018-05-18T10:15:35.265Z,1023.49
2018-05-18T10:16:35.061Z,1023.51
2018-05-18T10:17:35.272Z,1023.46
2018-05-18T10:18:35.326Z,1023.47
2018-05-18T10:19:35.207Z,1023.5
2018-05-18T10:20:35.011Z,1023.5
2018-05-18T10:21:34.997Z,1023.48
2018-05-18T10:22:35.025Z,1023.49
2018-05-18T10:23:35.181Z,1023.44
2018-05-18T10:24:35.210Z,1023.47
2018-05-18T10:25:35.007Z,1023.43
2018-05-18T10:26:35.200Z,1023.46
2018-05-18T10:27:35.065Z,1023.46
2018-05-18T10:28:35.244Z,1023.45
2018-05-18T10:29:35.288Z,1023.48
2018-05-18T10:30:34.974Z,1023.41
2018-05-18T10:31:35.206Z,1023.41
2018-05-18T10:32:35.221Z,1023.38
2018-05-18T10:33:35.115Z,1023.41
2018-05-18T10:34:35.231Z,1023.43
2018-05-18T10:35:35.104Z,1023.38
2018-05-18T10:36:35.039Z,1023.36
2018-05-18T10:37:35.148Z,1023.41
2018-05-18T10:38:35.229Z,1023.41
2018-05-18T10:39:45.627Z,1023.4
2018-05-18T10:40:35.231Z,1023.39
2018-05-18T10:41:35.031Z,1023.38
2018-05-18T10:42:35.041Z,1023.34
2018-05-18T10:43:35.166Z,1023.34
2018-05-18T10:44:35.202Z,1023.33
2018-05-18T10:45:35.170Z,1023.35
2018-05-18T10:46:35.116Z,1023.35
2018-05-18T10:47:35.089Z,1023.36
2018-05-18T10:48:35.255Z,1023.32
2018-05-18T10:49:35.166Z,1023.3
2018-05-18T10:50:35.198Z,1023.29
2018-05-18T10:51:35.081Z,1023.24
2018-05-18T10:52:35.109Z,1023.24
2018-05-18T10:53:35.220Z,1023.24
2018-05-18T10:54:35.265Z,1023.21
2018-05-18T10:55:45.086Z,1023.24
2018-05-18T10:56:35.284Z,1023.21
2018-05-18T10:57:35.138Z,1023.26
2018-05-18T10:58:35.258Z,1023.21
2018-05-18T10:59:35.212Z,1023.2
2018-05-18T11:00:35.225Z,1023.19
2018-05-18T11:01:35.181Z,1023.16
2018-05-18T11:02:35.111Z,1023.14
2018-05-18T11:03:35.075Z,1023.14
2018-05-18T11:04:35.101Z,1023.17
2018-05-18T11:05:34.994Z,1023.13
2018-05-18T11:06:35.186Z,1023.16
2018-05-18T11:07:35.217Z,1023.13
2018-05-18T11:08:35.094Z,1023.09
2018-05-18T11:09:35.224Z,1023.03
2018-05-18T11:10:35.145Z,1023.08
2018-05-18T11:11:35.020Z,1023.11
2018-05-18T11:12:35.172Z,1023.11
2018-05-18T11:13:35.219Z,1023.02
2018-05-18T11:14:35.266Z,1023.01
2018-05-18T11:15:35.270Z,1023.03
2018-05-18T11:16:35.179Z,1023
2018-05-18T11:17:35.071Z,1022.96
2018-05-18T11:18:35.201Z,1023
2018-05-18T11:19:35.119Z,1022.99
2018-05-18T11:20:35.116Z,1023.01
2018-05-18T11:21:35.100Z,1023.03
2018-05-18T11:22:35.209Z,1023.03
2018-05-18T11:23:35.145Z,1022.96
2018-05-18T11:24:35.067Z,1022.99
2018-05-18T11:25:35.283Z,1022.95
2018-05-18T11:26:35.009Z,1022.95
2018-05-18T11:27:35.248Z,1023
2018-05-18T11:28:35.091Z,1022.95
2018-05-18T11:29:34.985Z,1023.04
2018-05-18T11:30:35.092Z,1023.04
2018-05-18T11:31:35.056Z,1022.99
2018-05-18T11:32:35.098Z,1022.95
2018-05-18T11:33:35.091Z,1022.95
2018-05-18T11:34:35.176Z,1022.93
2018-05-18T11:35:35.024Z,1022.93
2018-05-18T11:36:35.284Z,1022.96
2018-05-18T11:37:35.206Z,1022.91
2018-05-18T11:38:34.964Z,1022.91
2018-05-18T11:39:35.169Z,1022.87
2018-05-18T11:40:35.145Z,1022.9
2018-05-18T11:41:35.189Z,1022.86
2018-05-18T11:42:35.148Z,1022.85
2018-05-18T11:43:35.064Z,1022.85
2018-05-18T11:44:34.987Z,1022.85
2018-05-18T11:45:35.195Z,1022.86
2018-05-18T11:46:35.246Z,1022.83
2018-05-18T11:47:34.866Z,1022.8
2018-05-18T11:48:35.289Z,1022.81
2018-05-18T11:49:35.057Z,1022.82
2018-05-18T11:50:35.198Z,1022.79
2018-05-18T11:51:34.987Z,1022.77
2018-05-18T11:52:35.086Z,1022.75
2018-05-18T11:53:35.242Z,1022.76
2018-05-18T11:54:35.431Z,1022.76
2018-05-18T11:55:35.261Z,1022.79
2018-05-18T11:56:34.992Z,1022.77
2018-05-18T11:57:35.117Z,1022.75
2018-05-18T11:58:35.262Z,1022.78
2018-05-18T11:59:35.235Z,1022.77
2018-05-18T12:00:35.265Z,1022.72
2018-05-18T12:01:35.048Z,1022.72
2018-05-18T12:02:35.333Z,1022.72
2018-05-18T12:03:35.081Z,1022.69
2018-05-18T12:04:35.038Z,1022.75
2018-05-18T12:05:35.044Z,1022.71
2018-05-18T12:06:35.140Z,1022.74
2018-05-18T12:07:35.171Z,1022.68
2018-05-18T12:08:35.481Z,1022.7